^^

Meteo Aereoporti Centro-Italia

 

 
LIRZ - Perugia S.Egidio (208 m.)
Dati ricevuti: 06/04/2020 22:50
Sereno
Sereno
 Vento da N
Vento: N 17 km/h
TEMPERATURA: 9°C
Raffreddamento da Vento: 7°C
P.to di Rugiada: 2°C
Umidità: 62%
Pressione: 1025 hPa
Condizioni generali: Sereno
Visibilità: oltre 10 km
2020/04/06 20:50 LIRZ 062050Z 35009KT CAVOK 09/02 Q1025
 
LIPY - Ancona Falconara (12 m.)
Dati ricevuti: 06/04/2020 22:50
Sereno
Sereno
 Vento da SSW
Vento: SSW 6 km/h
TEMPERATURA: 8°C
P.to di Rugiada: 5°C
Umidità: 82%
Pressione: 1027 hPa
Condizioni generali: Sereno
Visibilità: oltre 10 km
2020/04/06 20:50 LIPY 062050Z 21003KT 170V230 CAVOK 08/05 Q1027
 
LIPR - Rimini Miramare (12 m.)
Dati ricevuti: 06/04/2020 23:20
Sereno
Sereno
 Vento da S
Vento: S 7 km/h
TEMPERATURA: 8°C
Raffreddamento da Vento: 7°C
P.to di Rugiada: 2°C
Umidità: 66%
Pressione: 1027 hPa
Nuvole: Sereno
Visibilità: 10 km
2020/04/06 21:20 LIPR 062120Z AUTO 19004KT 9999 NCD 08/02 Q1027
 
LIRF - Roma Fiumicino (2 m.)
Dati ricevuti: 06/04/2020 23:20
Sereno
Sereno
 Vento da E
Vento: E 6 km/h
TEMPERATURA: 11°C
P.to di Rugiada: 7°C
Umidità: 77%
Pressione: 1025 hPa
Condizioni generali: Sereno
Visibilità: oltre 10 km
2020/04/06 21:20 LIRF 062120Z 10003KT CAVOK 11/07 Q1025 NOSIG
 
LIRA - Roma Ciampino (129 m.)
Dati ricevuti: 06/04/2020 22:50
Sereno
Sereno
 Vento da S
Vento: S 6 km/h
TEMPERATURA: 14°C
P.to di Rugiada: 3°C
Umidità: 48%
Pressione: 1026 hPa
Condizioni generali: Sereno
Visibilità: oltre 10 km
2020/04/06 20:50 LIRA 062050Z 18003KT 140V200 CAVOK 14/03 Q1026
 
LIRU - Roma Urbe (17 m.)
Dati ricevuti: 06/04/2020 19:50
Dati non aggiornati
Sereno
Sereno
 Vento da W
Vento: W 7 km/h
TEMPERATURA: 16°C
P.to di Rugiada: 3°C
Umidità: 42%
Pressione: 1024 hPa
Condizioni generali: Sereno
Visibilità: oltre 10 km
2020/04/06 17:50 LIRU 061750Z 26004KT CAVOK 16/03 Q1024
 
LIVF - Frontone (570 m.)
Dati ricevuti: 06/04/2020 11:55
Dati non aggiornati
Sereno
Sereno
 Vento da ESE
Vento: ESE 6 km/h
TEMPERATURA: 13°C
P.to di Rugiada: 1°C
Umidità: 44%
Pressione: 1023 hPa
Condizioni generali: Sereno
Visibilità: oltre 10 km
2020/04/06 09:55 LIVF 060955Z 11003KT CAVOK 13/01 Q1023
 
LIRQ - Firenze Peretola (40 m.)
Dati ricevuti: 06/04/2020 23:20
Sereno
Sereno
 Vento da direzione variabile
Vento: direzione variabile 4 km/h
TEMPERATURA: 14°C
P.to di Rugiada: 1°C
Umidità: 41%
Pressione: 1026 hPa
Condizioni generali: Sereno
Visibilità: oltre 10 km
2020/04/06 21:20 LIRQ 062120Z VRB02KT CAVOK 14/01 Q1026
 
LIBP - Pescara (10 m.)
Dati ricevuti: 06/04/2020 22:50
Sereno
Sereno
 Vento da W
Vento: W 4 km/h
TEMPERATURA: 8°C
P.to di Rugiada: 7°C
Umidità: 93%
Pressione: 1027 hPa
Condizioni generali: Sereno
Visibilità: oltre 10 km
2020/04/06 20:50 LIBP 062050Z 26002KT CAVOK 08/07 Q1027
 
LIRV - Viterbo (300 m.)
Dati ricevuti: 06/04/2020 19:55
Dati non aggiornati
Sereno
Sereno
 Vento da SW
Vento: SW 15 km/h
TEMPERATURA: 14°C
P.to di Rugiada: 6°C
Umidità: 59%
Pressione: 1023 hPa
Condizioni generali: Sereno
Visibilità: oltre 10 km
2020/04/06 17:55 LIRV 061755Z 23008KT CAVOK 14/06 Q1023
 
LIQN - Rieti (389 m.)
Dati ricevuti: 06/04/2020 19:50
Dati non aggiornati
Sereno
Sereno
 Vento da SSE
Vento: SSE 11 km/h
TEMPERATURA: 15°C
P.to di Rugiada: 3°C
Umidità: 45%
Pressione: 1023 hPa
Condizioni generali: Sereno
Visibilità: oltre 10 km
2020/04/06 17:50 LIQN 061750Z 15006KT 130V190 CAVOK 15/03 Q1023
 
LIRG - Guidonia -RM- (88 m.)
Dati ricevuti: 06/04/2020 19:55
Dati non aggiornati
Sereno
Sereno
 Vento da WSW
Vento: WSW 9 km/h
TEMPERATURA: 15°C
P.to di Rugiada: 4°C
Umidità: 48%
Pressione: 1025 hPa
Condizioni generali: Sereno
Visibilità: oltre 10 km
2020/04/06 17:55 LIRG 061755Z 24005KT CAVOK 15/04 Q1025
 
LIRK - Terminillo -RI-(1874 m.)
Dati ricevuti: 06/04/2020 22:55

 Vento da direzione variabile
Vento: direzione variabile 9 km/h
TEMPERATURA: 3°C
Raffreddamento da Vento: 0°C
P.to di Rugiada: -3°C
Umidità: 65%
Pressione: 1027 hPa
2020/04/06 20:55 LIRK 062055Z AUTO VRB05KT //// 03/M03 Q1027
 
LIPK - Forlì (27 m.)
Dati ricevuti: 10/03/2020 17:50
Dati non aggiornati
Sereno
Sereno
 Vento da ENE
Vento: ENE 11 km/h
TEMPERATURA: 14°C
P.to di Rugiada: 4°C
Umidità: 51%
Pressione: 1016 hPa
Condizioni generali: Sereno
Visibilità: oltre 10 km
2020/03/10 16:50 LIPK 101650Z 07006KT CAVOK 14/04 Q1016
 
LIRS - Grosseto (5 m.)
Dati ricevuti: 06/04/2020 22:55
Sereno
Sereno
 Vento da NE
Vento: NE 9 km/h
TEMPERATURA: 11°C
P.to di Rugiada: 8°C
Umidità: 82%
Pressione: 1025 hPa
Condizioni generali: Sereno
Visibilità: oltre 10 km
2020/04/06 20:55 LIRS 062055Z 05005KT CAVOK 11/08 Q1025
 
LIRP - Pisa S.Giusto (2 m.)
Dati ricevuti: 06/04/2020 23:15
Sereno
Sereno
 Vento da SE
Vento: SE 6 km/h
TEMPERATURA: 11°C
P.to di Rugiada: 4°C
Umidità: 62%
Pressione: 1025 hPa
Condizioni generali: Sereno
Visibilità: oltre 10 km
2020/04/06 21:15 LIRP 062115Z 13003KT CAVOK 11/04 Q1025 NOSIG